createdAt,value
2018-01-30T00:01:05.359Z,103455.47
2018-01-30T00:03:32.847Z,103450.31
2018-01-30T00:06:00.336Z,103451.16
2018-01-30T00:08:27.835Z,103450.73
2018-01-30T00:10:55.338Z,103449.02
2018-01-30T00:13:22.843Z,103447.25
2018-01-30T00:15:50.347Z,103444.24
2018-01-30T00:18:17.826Z,103443.78
2018-01-30T00:20:45.388Z,103443.73
2018-01-30T00:23:12.879Z,103436.80
2018-01-30T00:25:40.353Z,103430.72
2018-01-30T00:28:07.860Z,103429.38
2018-01-30T00:30:35.363Z,103430.67
2018-01-30T00:33:02.883Z,103425.45
2018-01-30T00:35:30.363Z,103425.45
2018-01-30T00:37:57.864Z,103426.70
2018-01-30T00:40:25.340Z,103426.65
2018-01-30T00:42:52.812Z,103427.09
2018-01-30T00:45:20.357Z,103425.35
2018-01-30T00:47:47.865Z,103424.88
2018-01-30T00:50:15.371Z,103424.88
2018-01-30T00:52:42.846Z,103420.54
2018-01-30T00:55:10.332Z,103413.19
2018-01-30T00:57:37.823Z,103408.83
2018-01-30T01:00:05.317Z,103405.33
2018-01-30T01:02:32.802Z,103403.09
2018-01-30T01:05:00.308Z,103411.76
2018-01-30T01:07:27.821Z,103409.16
2018-01-30T01:09:55.299Z,103399.21
2018-01-30T01:12:22.795Z,103400.47
2018-01-30T01:14:50.267Z,103400.88
2018-01-30T01:17:17.751Z,103399.16
2018-01-30T01:19:45.236Z,103400.41
2018-01-30T01:22:12.703Z,103405.59
2018-01-30T01:24:40.195Z,103407.72
2018-01-30T01:27:07.675Z,103409.45
2018-01-30T01:29:35.159Z,103399.91
2018-01-30T01:32:02.601Z,103397.75
2018-01-30T01:34:30.183Z,103393.86
2018-01-30T01:36:57.651Z,103383.92
2018-01-30T01:39:25.124Z,103389.06
2018-01-30T01:41:52.603Z,103390.77
2018-01-30T01:44:20.084Z,103382.11
2018-01-30T01:46:47.563Z,103388.94
2018-01-30T01:49:15.075Z,103378.95
2018-01-30T01:51:42.556Z,103370.30
2018-01-30T01:54:10.039Z,103369.92
2018-01-30T01:56:37.633Z,103378.14
2018-01-30T01:59:05.111Z,103374.27
2018-01-30T02:01:32.590Z,103366.94
2018-01-30T02:04:00.075Z,103369.09
2018-01-30T02:06:27.567Z,103359.16
2018-01-30T02:08:55.078Z,103367.73
2018-01-30T02:11:22.573Z,103368.14
2018-01-30T02:13:50.095Z,103371.17
2018-01-30T02:16:17.574Z,103368.14
2018-01-30T02:18:45.053Z,103362.95
2018-01-30T02:21:12.559Z,103359.52
2018-01-30T02:23:40.054Z,103364.25
2018-01-30T02:26:07.553Z,103366.85
2018-01-30T02:28:35.043Z,103365.45
2018-01-30T02:31:02.545Z,103369.28
2018-01-30T02:33:30.042Z,103364.94
2018-01-30T02:35:57.525Z,103364.50
2018-01-30T02:38:25.017Z,103366.66
2018-01-30T02:40:52.516Z,103369.17
2018-01-30T02:43:19.999Z,103368.66
2018-01-30T02:45:47.577Z,103362.17
2018-01-30T02:48:15.075Z,103357.33
2018-01-30T02:50:42.613Z,103364.25
2018-01-30T02:53:10.089Z,103364.66
2018-01-30T02:55:37.564Z,103356.02
2018-01-30T02:58:05.048Z,103352.53
2018-01-30T03:00:32.551Z,103343.50
2018-01-30T03:03:00.015Z,103339.16
2018-01-30T03:05:27.499Z,103334.84
2018-01-30T03:07:54.978Z,103337.83
2018-01-30T03:10:22.471Z,103337.77
2018-01-30T03:12:49.943Z,103334.70
2018-01-30T03:15:17.434Z,103331.70
2018-01-30T03:17:44.922Z,103331.27
2018-01-30T03:20:12.424Z,103333.43
2018-01-30T03:22:40.074Z,103327.42
2018-01-30T03:25:07.555Z,103325.66
2018-01-30T03:27:35.034Z,103323.50
2018-01-30T03:30:02.543Z,103324.77
2018-01-30T03:32:30.030Z,103323.00
2018-01-30T03:34:57.513Z,103317.81
2018-01-30T03:37:24.994Z,103321.27
2018-01-30T03:39:52.476Z,103318.24
2018-01-30T03:42:19.954Z,103309.61
2018-01-30T03:44:47.423Z,103303.56
2018-01-30T03:47:14.924Z,103296.20
2018-01-30T03:49:42.409Z,103295.73
2018-01-30T03:52:09.888Z,103293.56
2018-01-30T03:54:37.358Z,103284.89
2018-01-30T03:57:04.844Z,103288.38
2018-01-30T03:59:32.334Z,103280.16
2018-01-30T04:01:59.807Z,103271.95
2018-01-30T04:04:27.271Z,103274.95
2018-01-30T04:06:54.750Z,103277.12
2018-01-30T04:09:22.214Z,103267.19
2018-01-30T04:11:49.669Z,103267.19
2018-01-30T04:14:17.168Z,103255.94
2018-01-30T04:16:44.648Z,103260.64
2018-01-30T04:19:12.147Z,103258.48
2018-01-30T04:21:39.617Z,103248.55
2018-01-30T04:24:07.090Z,103245.89
2018-01-30T04:26:34.580Z,103239.80
2018-01-30T04:29:02.067Z,103235.53
2018-01-30T04:31:29.536Z,103235.95
2018-01-30T04:33:57.066Z,103244.55
2018-01-30T04:36:24.584Z,103240.20
2018-01-30T04:38:52.067Z,103245.81
2018-01-30T04:41:19.539Z,103250.94
2018-01-30T04:43:47.022Z,103252.62
2018-01-30T04:46:14.492Z,103246.14
2018-01-30T04:48:41.971Z,103239.22
2018-01-30T04:51:09.455Z,103238.77
2018-01-30T04:53:36.939Z,103235.76
2018-01-30T04:56:04.445Z,103231.86
2018-01-30T04:58:31.958Z,103239.20
2018-01-30T05:00:59.430Z,103233.59
2018-01-30T05:03:26.914Z,103232.25
2018-01-30T05:05:54.403Z,103226.67
2018-01-30T05:08:21.852Z,103217.16
2018-01-30T05:10:49.351Z,103220.62
2018-01-30T05:13:16.816Z,103216.28
2018-01-30T05:15:44.338Z,103213.21
2018-01-30T05:18:11.834Z,103210.16
2018-01-30T05:20:39.306Z,103203.70
2018-01-30T05:23:06.813Z,103213.19
2018-01-30T05:25:34.307Z,103210.63
2018-01-30T05:28:01.780Z,103209.69
2018-01-30T05:30:29.279Z,103207.95
2018-01-30T05:32:56.728Z,103209.69
2018-01-30T05:35:24.290Z,103212.25
2018-01-30T05:37:51.778Z,103214.81
2018-01-30T05:40:20.122Z,103205.78
2018-01-30T05:42:47.595Z,103203.18
2018-01-30T05:45:15.079Z,103198.84
2018-01-30T05:47:42.572Z,103198.41
2018-01-30T05:50:10.059Z,103190.20
2018-01-30T05:52:37.544Z,103184.17
2018-01-30T05:55:05.010Z,103186.34
2018-01-30T05:57:32.495Z,103176.44
2018-01-30T06:00:00.057Z,103168.66
2018-01-30T06:02:27.530Z,103171.14
2018-01-30T06:04:55.007Z,103170.23
2018-01-30T06:07:22.493Z,103159.88
2018-01-30T06:09:49.966Z,103156.41
2018-01-30T06:12:17.445Z,103158.59
2018-01-30T06:14:44.932Z,103156.04
2018-01-30T06:17:12.431Z,103159.05
2018-01-30T06:19:39.894Z,103160.78
2018-01-30T06:22:07.422Z,103171.06
2018-01-30T06:24:34.939Z,103167.20
2018-01-30T06:27:02.423Z,103165.86
2018-01-30T06:29:30.752Z,103165.85
2018-01-30T06:31:58.259Z,103166.70
2018-01-30T06:34:25.727Z,103162.41
2018-01-30T06:36:53.211Z,103162.80
2018-01-30T06:39:20.701Z,103167.10
2018-01-30T06:41:48.179Z,103168.83
2018-01-30T06:44:15.669Z,103170.53
2018-01-30T06:46:43.170Z,103176.98
2018-01-30T06:49:10.640Z,103182.55
2018-01-30T06:51:39.318Z,103181.98
2018-01-30T06:54:06.802Z,103180.27
2018-01-30T06:56:34.307Z,103182.03
2018-01-30T06:59:01.810Z,103186.78
2018-01-30T07:01:29.279Z,103188.45
2018-01-30T07:03:56.754Z,103182.47
2018-01-30T07:06:24.230Z,103183.33
2018-01-30T07:08:51.723Z,103191.89
2018-01-30T07:11:19.215Z,103188.70
2018-01-30T07:13:46.696Z,103179.59
2018-01-30T07:16:14.195Z,103186.90
2018-01-30T07:18:41.686Z,103187.30
2018-01-30T07:21:09.166Z,103189.50
2018-01-30T07:23:36.649Z,103191.61
2018-01-30T07:26:04.160Z,103190.35
2018-01-30T07:28:31.653Z,103188.67
2018-01-30T07:30:59.151Z,103186.59
2018-01-30T07:33:26.640Z,103189.22
2018-01-30T07:35:54.115Z,103197.88
2018-01-30T07:38:21.664Z,103189.34
2018-01-30T07:40:49.155Z,103190.24
2018-01-30T07:43:16.644Z,103196.77
2018-01-30T07:45:44.143Z,103190.02
2018-01-30T07:48:11.632Z,103187.10
2018-01-30T07:50:39.149Z,103187.66
2018-01-30T07:53:06.632Z,103189.41
2018-01-30T07:55:34.107Z,103190.31
2018-01-30T07:58:01.619Z,103190.00
2018-01-30T08:00:29.488Z,103199.98
2018-01-30T08:02:56.987Z,103203.92
2018-01-30T08:05:24.458Z,103207.88
2018-01-30T08:07:51.939Z,103209.72
2018-01-30T08:10:19.413Z,103219.27
2018-01-30T08:12:46.892Z,103218.50
2018-01-30T08:15:14.363Z,103218.61
2018-01-30T08:17:41.847Z,103214.36
2018-01-30T08:20:09.360Z,103211.86
2018-01-30T08:22:36.846Z,103202.39
2018-01-30T08:25:04.398Z,103197.26
2018-01-30T08:27:31.889Z,103193.84
2018-01-30T08:29:59.387Z,103193.92
2018-01-30T08:32:26.899Z,103190.13
2018-01-30T08:34:54.461Z,103176.41
2018-01-30T08:37:21.953Z,103169.53
2018-01-30T08:39:49.443Z,103154.86
2018-01-30T08:42:17.005Z,103147.52
2018-01-30T08:44:44.540Z,103140.61
2018-01-30T08:47:12.049Z,103137.63
2018-01-30T08:49:39.543Z,103130.33
2018-01-30T08:52:07.047Z,103116.11
2018-01-30T08:54:34.529Z,103106.24
2018-01-30T08:57:02.023Z,103087.72
2018-01-30T08:59:29.498Z,103079.14
2018-01-30T09:01:57.199Z,103067.97
2018-01-30T09:04:24.698Z,103057.22
2018-01-30T09:06:52.186Z,103046.43
2018-01-30T09:09:19.756Z,103033.11
2018-01-30T09:11:47.282Z,103011.55
2018-01-30T09:14:14.782Z,102997.32
2018-01-30T09:16:42.303Z,102999.47
2018-01-30T09:19:09.867Z,102989.98
2018-01-30T09:21:37.352Z,102986.11
2018-01-30T09:24:04.795Z,102981.78
2018-01-30T09:26:32.322Z,102977.50
2018-01-30T09:28:59.807Z,102975.77
2018-01-30T09:31:27.287Z,102991.31
2018-01-30T09:33:54.827Z,102993.95
2018-01-30T09:36:22.314Z,102995.30
2018-01-30T09:38:49.806Z,103000.91
2018-01-30T09:41:17.279Z,103020.40
2018-01-30T09:43:44.766Z,103027.80
2018-01-30T09:46:12.235Z,103026.52
2018-01-30T09:48:39.737Z,103012.28
2018-01-30T09:51:07.215Z,103003.66
2018-01-30T09:53:34.775Z,103006.28
2018-01-30T09:56:02.256Z,103008.45
2018-01-30T09:58:29.764Z,103006.73
2018-01-30T10:00:57.243Z,103017.98
2018-01-30T10:03:24.740Z,103034.42
2018-01-30T10:05:52.233Z,103027.53
2018-01-30T10:08:19.720Z,103017.59
2018-01-30T10:10:47.215Z,103017.16
2018-01-30T10:13:14.705Z,102996.88
2018-01-30T10:15:42.196Z,102972.23
2018-01-30T10:18:09.698Z,102957.98
2018-01-30T10:20:37.238Z,102956.67
2018-01-30T10:23:04.742Z,102961.86
2018-01-30T10:25:32.223Z,102958.42
2018-01-30T10:27:59.703Z,102968.34
2018-01-30T10:30:27.179Z,102974.41
2018-01-30T10:32:54.687Z,102976.98
2018-01-30T10:35:22.171Z,102972.67
2018-01-30T10:37:49.656Z,102964.03
2018-01-30T10:40:17.178Z,102967.91
2018-01-30T10:42:44.671Z,102957.97
2018-01-30T10:45:12.188Z,102944.58
2018-01-30T10:47:39.704Z,102938.95
2018-01-30T10:50:07.245Z,102935.06
2018-01-30T10:52:34.715Z,102941.09
2018-01-30T10:55:02.223Z,102944.98
2018-01-30T10:57:29.709Z,102931.98
2018-01-30T10:59:57.213Z,102911.67
2018-01-30T11:02:24.698Z,102921.17
2018-01-30T11:04:52.202Z,102909.05
2018-01-30T11:07:19.689Z,102912.55
2018-01-30T11:09:47.183Z,102903.00
2018-01-30T11:12:14.674Z,102899.95
2018-01-30T11:14:42.211Z,102909.07
2018-01-30T11:17:09.696Z,102908.66
2018-01-30T11:19:37.196Z,102908.61
2018-01-30T11:22:04.696Z,102906.43
2018-01-30T11:24:32.230Z,102906.41
2018-01-30T11:26:59.725Z,102907.27
2018-01-30T11:29:27.229Z,102899.42
2018-01-30T11:31:54.763Z,102903.74
2018-01-30T11:34:22.250Z,102897.23
2018-01-30T11:36:49.750Z,102899.39
2018-01-30T11:39:17.243Z,102897.56
2018-01-30T11:41:44.811Z,102897.11
2018-01-30T11:44:12.291Z,102893.55
2018-01-30T11:46:39.780Z,102899.51
2018-01-30T11:49:07.336Z,102899.41
2018-01-30T11:51:34.830Z,102889.34
2018-01-30T11:54:02.313Z,102882.84
2018-01-30T11:56:29.836Z,102871.03
2018-01-30T11:58:57.343Z,102858.44
2018-01-30T12:01:24.820Z,102856.16
2018-01-30T12:03:52.321Z,102851.71
2018-01-30T12:06:19.810Z,102852.84
2018-01-30T12:08:47.298Z,102845.77
2018-01-30T12:11:14.799Z,102831.42
2018-01-30T12:13:42.319Z,102827.05
2018-01-30T12:16:09.840Z,102819.28
2018-01-30T12:18:37.340Z,102813.56
2018-01-30T12:21:04.829Z,102801.34
2018-01-30T12:23:32.328Z,102794.41
2018-01-30T12:25:59.833Z,102790.72
2018-01-30T12:28:27.335Z,102786.81
2018-01-30T12:30:54.868Z,102781.95
2018-01-30T12:33:22.338Z,102782.23
2018-01-30T12:35:49.840Z,102776.08
2018-01-30T12:38:17.333Z,102768.86
2018-01-30T12:40:44.851Z,102759.18
2018-01-30T12:43:12.374Z,102761.36
2018-01-30T12:45:39.867Z,102752.67
2018-01-30T12:48:07.418Z,102745.20
2018-01-30T12:50:34.907Z,102734.34
2018-01-30T12:53:02.423Z,102722.97
2018-01-30T12:55:29.933Z,102713.70
2018-01-30T12:57:57.458Z,102706.23
2018-01-30T13:00:24.950Z,102701.70
2018-01-30T13:02:52.455Z,102695.14
2018-01-30T13:05:19.939Z,102694.11
2018-01-30T13:07:47.438Z,102677.01
2018-01-30T13:10:14.941Z,102676.05
2018-01-30T13:12:42.450Z,102673.87
2018-01-30T13:15:09.929Z,102674.69
2018-01-30T13:17:37.411Z,102656.48
2018-01-30T13:20:04.896Z,102657.73
2018-01-30T13:22:32.427Z,102646.48
2018-01-30T13:24:59.907Z,102639.97
2018-01-30T13:27:27.507Z,102638.19
2018-01-30T13:29:54.991Z,102636.98
2018-01-30T13:32:22.471Z,102631.83
2018-01-30T13:34:49.958Z,102624.21
2018-01-30T13:37:17.572Z,102619.83
2018-01-30T13:39:45.063Z,102617.95
2018-01-30T13:42:12.579Z,102606.83
2018-01-30T13:44:40.179Z,102602.32
2018-01-30T13:47:07.706Z,102598.07
2018-01-30T13:49:35.190Z,102595.59
2018-01-30T13:52:02.710Z,102585.78
2018-01-30T13:54:30.190Z,102584.12
2018-01-30T13:56:57.671Z,102576.77
2018-01-30T13:59:25.179Z,102567.72
2018-01-30T14:01:52.672Z,102560.88
2018-01-30T14:04:20.148Z,102555.72
2018-01-30T14:06:47.656Z,102537.14
2018-01-30T14:09:15.147Z,102529.77
2018-01-30T14:11:42.635Z,102530.65
2018-01-30T14:14:10.109Z,102528.52
2018-01-30T14:16:37.607Z,102522.93
2018-01-30T14:19:05.087Z,102512.94
2018-01-30T14:21:32.600Z,102508.55
2018-01-30T14:24:00.109Z,102507.69
2018-01-30T14:26:27.596Z,102493.46
2018-01-30T14:28:55.156Z,102484.84
2018-01-30T14:31:22.634Z,102490.58
2018-01-30T14:33:50.116Z,102487.64
2018-01-30T14:36:17.631Z,102482.00
2018-01-30T14:38:45.092Z,102482.58
2018-01-30T14:41:12.611Z,102475.41
2018-01-30T14:43:40.125Z,102464.56
2018-01-30T14:46:07.643Z,102464.50
2018-01-30T14:48:35.136Z,102464.07
2018-01-30T14:51:02.607Z,102453.61
2018-01-30T14:53:30.095Z,102448.80
2018-01-30T14:55:57.580Z,102441.91
2018-01-30T14:58:25.119Z,102441.48
2018-01-30T15:00:52.637Z,102430.63
2018-01-30T15:03:20.175Z,102423.69
2018-01-30T15:05:47.752Z,102411.50
2018-01-30T15:08:15.251Z,102408.89
2018-01-30T15:10:42.754Z,102401.94
2018-01-30T15:13:10.271Z,102391.09
2018-01-30T15:15:38.876Z,102386.00
2018-01-30T15:18:06.977Z,102384.70
2018-01-30T15:20:34.486Z,102372.56
2018-01-30T15:23:01.993Z,102360.08
2018-01-30T15:25:29.482Z,102354.01
2018-01-30T15:27:56.976Z,102345.13
2018-01-30T15:30:24.534Z,102336.70
2018-01-30T15:32:52.071Z,102337.46
2018-01-30T15:35:19.566Z,102334.05
2018-01-30T15:37:47.057Z,102320.61
2018-01-30T15:40:14.555Z,102319.31
2018-01-30T15:42:42.045Z,102312.85
2018-01-30T15:45:09.547Z,102307.22
2018-01-30T15:47:37.018Z,102301.14
2018-01-30T15:50:04.540Z,102294.27
2018-01-30T15:52:32.031Z,102282.17
2018-01-30T15:54:59.550Z,102277.84
2018-01-30T15:57:27.054Z,102271.83
2018-01-30T15:59:54.600Z,102260.12
2018-01-30T16:02:22.077Z,102252.75
2018-01-30T16:04:49.568Z,102242.30
2018-01-30T16:07:17.090Z,102238.35
2018-01-30T16:09:44.571Z,102233.63
2018-01-30T16:12:12.061Z,102228.80
2018-01-30T16:14:39.563Z,102228.32
2018-01-30T16:17:07.059Z,102219.27
2018-01-30T16:19:34.546Z,102221.88
2018-01-30T16:22:02.090Z,102214.02
2018-01-30T16:24:29.576Z,102203.60
2018-01-30T16:26:57.075Z,102202.74
2018-01-30T16:29:24.672Z,102195.80
2018-01-30T16:31:52.172Z,102191.09
2018-01-30T16:34:19.695Z,102182.42
2018-01-30T16:36:47.211Z,102181.05
2018-01-30T16:39:14.737Z,102176.67
2018-01-30T16:41:42.262Z,102170.66
2018-01-30T16:44:09.781Z,102162.41
2018-01-30T16:46:37.283Z,102161.06
2018-01-30T16:49:04.774Z,102154.63
2018-01-30T16:51:32.275Z,102141.98
2018-01-30T16:53:59.760Z,102146.69
2018-01-30T16:56:27.234Z,102141.48
2018-01-30T16:58:54.868Z,102130.29
2018-01-30T17:01:22.371Z,102126.75
2018-01-30T17:03:49.873Z,102118.02
2018-01-30T17:06:17.379Z,102110.21
2018-01-30T17:08:44.957Z,102104.09
2018-01-30T17:11:12.477Z,102097.63
2018-01-30T17:13:40.005Z,102095.11
2018-01-30T17:16:07.550Z,102098.87
2018-01-30T17:18:35.090Z,102094.84
2018-01-30T17:21:02.612Z,102093.92
2018-01-30T17:23:30.138Z,102088.23
2018-01-30T17:25:57.662Z,102080.84
2018-01-30T17:28:25.223Z,102077.30
2018-01-30T17:30:52.719Z,102074.59
2018-01-30T17:33:20.203Z,102067.16
2018-01-30T17:35:47.703Z,102059.70
2018-01-30T17:38:15.310Z,102058.34
2018-01-30T17:40:42.794Z,102068.24
2018-01-30T17:43:11.164Z,102053.44
2018-01-30T17:45:38.656Z,102055.97
2018-01-30T17:48:06.155Z,102048.53
2018-01-30T17:50:33.657Z,102048.03
2018-01-30T17:53:01.165Z,102044.52
2018-01-30T17:55:28.739Z,102040.08
2018-01-30T17:57:56.219Z,102028.78
2018-01-30T18:00:23.733Z,102024.02
2018-01-30T18:02:51.259Z,102015.69
2018-01-30T18:05:18.776Z,102010.83
2018-01-30T18:07:46.283Z,101998.17
2018-01-30T18:10:13.815Z,102006.73
2018-01-30T18:12:41.317Z,102001.44
2018-01-30T18:15:08.851Z,102003.47
2018-01-30T18:17:36.385Z,101996.37
2018-01-30T18:20:03.955Z,101999.85
2018-01-30T18:22:31.465Z,101991.92
2018-01-30T18:24:59.088Z,101991.47
2018-01-30T18:27:26.599Z,101992.70
2018-01-30T18:29:54.104Z,101984.93
2018-01-30T18:32:21.596Z,101979.58
2018-01-30T18:34:49.125Z,101983.91
2018-01-30T18:37:16.664Z,101974.61
2018-01-30T18:39:44.156Z,101970.88
2018-01-30T18:42:11.665Z,101966.77
2018-01-30T18:44:39.183Z,101962.09
2018-01-30T18:47:07.253Z,101972.53
2018-01-30T18:49:35.563Z,101956.86
2018-01-30T18:52:04.966Z,101954.52
2018-01-30T18:54:38.366Z,101943.38
2018-01-30T18:57:06.232Z,101944.89
2018-01-30T18:59:33.775Z,101944.67
2018-01-30T19:02:01.379Z,101940.45
2018-01-30T19:04:28.931Z,101940.81
2018-01-30T19:06:56.611Z,101938.75
2018-01-30T19:09:24.203Z,101940.65
2018-01-30T19:11:51.732Z,101938.27
2018-01-30T19:14:20.070Z,101929.33
2018-01-30T19:16:47.661Z,101936.08
2018-01-30T19:19:16.153Z,101927.53
2018-01-30T19:21:44.200Z,101925.63
2018-01-30T19:24:11.699Z,101922.19
2018-01-30T19:26:39.240Z,101924.03
2018-01-30T19:29:06.784Z,101923.22
2018-01-30T19:31:34.288Z,101918.88
2018-01-30T19:34:01.836Z,101919.91
2018-01-30T19:36:29.356Z,101932.63
2018-01-30T19:39:00.596Z,101924.92
2018-01-30T19:41:28.115Z,101928.03
2018-01-30T19:43:55.615Z,101915.60
2018-01-30T19:46:23.179Z,101907.42
2018-01-30T19:48:50.776Z,101905.30
2018-01-30T19:51:18.277Z,101891.73
2018-01-30T19:53:45.809Z,101907.47
2018-01-30T19:56:13.332Z,101894.26
2018-01-30T19:58:40.863Z,101890.65
2018-01-30T20:01:08.409Z,101882.04
2018-01-30T20:03:35.992Z,101869.91
2018-01-30T20:06:03.501Z,101879.75
2018-01-30T20:08:31.000Z,101864.42
2018-01-30T20:10:58.506Z,101860.44
2018-01-30T20:13:26.038Z,101854.05
2018-01-30T20:15:53.524Z,101856.69
2018-01-30T20:18:21.041Z,101847.86
2018-01-30T20:20:48.558Z,101851.45
2018-01-30T20:23:16.063Z,101847.44
2018-01-30T20:25:43.551Z,101847.87
2018-01-30T20:28:11.054Z,101846.69
2018-01-30T20:30:38.610Z,101840.16
2018-01-30T20:33:06.090Z,101841.10
2018-01-30T20:35:33.587Z,101839.26
2018-01-30T20:38:01.094Z,101839.37
2018-01-30T20:40:28.586Z,101843.37
2018-01-30T20:42:57.166Z,101840.62
2018-01-30T20:45:24.653Z,101837.31
2018-01-30T20:47:52.150Z,101827.55
2018-01-30T20:50:19.698Z,101822.05
2018-01-30T20:52:47.202Z,101810.00
2018-01-30T20:55:14.712Z,101831.66
2018-01-30T20:57:42.235Z,101799.84
2018-01-30T21:00:09.728Z,101791.45
2018-01-30T21:02:37.203Z,101794.48
2018-01-30T21:05:04.710Z,101796.48
2018-01-30T21:07:32.207Z,101789.30
2018-01-30T21:09:59.686Z,101800.38
2018-01-30T21:12:27.170Z,101794.00
2018-01-30T21:14:54.703Z,101805.02
2018-01-30T21:17:22.203Z,101785.82
2018-01-30T21:19:49.695Z,101784.05
2018-01-30T21:22:17.203Z,101764.53
2018-01-30T21:24:44.703Z,101758.94
2018-01-30T21:27:12.206Z,101757.59
2018-01-30T21:29:39.750Z,101761.25
2018-01-30T21:32:07.315Z,101766.92
2018-01-30T21:34:34.847Z,101766.80
2018-01-30T21:37:02.335Z,101755.64
2018-01-30T21:39:29.845Z,101762.34
2018-01-30T21:41:57.343Z,101749.91
2018-01-30T21:44:24.835Z,101751.45
2018-01-30T21:46:52.339Z,101739.45
2018-01-30T21:49:19.842Z,101738.96
2018-01-30T21:51:47.370Z,101737.30
2018-01-30T21:54:18.431Z,101722.47
2018-01-30T21:56:42.363Z,101726.45
2018-01-30T21:59:09.871Z,101724.36
2018-01-30T22:01:37.386Z,101718.16
2018-01-30T22:04:04.863Z,101720.38
2018-01-30T22:06:32.344Z,101710.66
2018-01-30T22:08:59.868Z,101699.19
2018-01-30T22:11:27.363Z,101694.86
2018-01-30T22:13:54.866Z,101686.64
2018-01-30T22:16:22.383Z,101685.56
2018-01-30T22:18:49.934Z,101669.80
2018-01-30T22:21:17.434Z,101683.93
2018-01-30T22:23:44.930Z,101692.00
2018-01-30T22:26:12.442Z,101687.89
2018-01-30T22:28:39.933Z,101684.77
2018-01-30T22:31:07.414Z,101686.52
2018-01-30T22:33:34.924Z,101681.41
2018-01-30T22:36:02.427Z,101695.80
2018-01-30T22:38:29.922Z,101689.51
2018-01-30T22:40:57.415Z,101685.79
2018-01-30T22:43:24.918Z,101678.34
2018-01-30T22:45:52.415Z,101693.78
